Felix — V2GW6 — position and weather

sailwx.info

Track history (hours):
 
Tides and Currents Weather Stations Pressure Air Temp Water Temp Dewpoint Dewpoint Depression Visibility Wind Speed Wind Dir Waves Ship Positions

Felix

Last reported at 2017-Dec-11 05:30 UTC. Time now 2017-Dec-11 05:46 UTC.
Position N 50°21' W 002°53'.

Length 112 m; draft 6.7 m.

Type: Cargo ship. MMSI: 305791000.

Date/timePositionNaut miles runAvg speedWind from/ knotsBaromVisibWave heightAir tempDewpointWater temp
2017-Dec-11 05:30N 50°21' W 002°53'5 9.0
2017-Dec-11 05:00N 50°20' W 002°60'5 9.2
2017-Dec-11 04:30N 50°18' W 003°06'5 9.5
2017-Dec-11 04:00N 50°16' W 003°13'5 9.7
2017-Dec-11 03:30N 50°15' W 003°20'510.1
2017-Dec-11 03:00N 50°13' W 003°28'510.6
2017-Dec-11 02:30N 50°11' W 003°35'511.0
2017-Dec-11 02:00N 50°09' W 003°43'611.1
2017-Dec-11 01:30N 50°06' W 003°51'510.8
2017-Dec-11 01:00N 50°03' W 003°57'611.2
2017-Dec-11 00:30N 49°58' W 004°03'611.1
2017-Dec-10 23:56N 49°54' W 004°09'1211.3
2017-Dec-10 22:53N 49°44' W 004°20'6510.8
2017-Dec-10 16:51N 48°55' W 005°25'4 9.7
2017-Dec-10 16:26N 48°51' W 005°29'4 9.5
2017-Dec-10 16:00N 48°48' W 005°33'6 9.3
2017-Dec-10 15:21N 48°43' W 005°38'3 9.1
2017-Dec-10 14:59N 48°40' W 005°41'5 9.1
2017-Dec-10 14:28N 48°36' W 005°44'4 8.0
2017-Dec-10 13:55N 48°32' W 005°45'10 9.1
2017-Dec-10 12:48N 48°23' W 005°51'  
2017-Dec-08 06:46N 39°24' W 009°50'311.7
2017-Dec-08 06:30N 39°20' W 009°50'611.6
2017-Dec-08 06:00N 39°15' W 009°50'611.5
2017-Dec-08 05:30N 39°09' W 009°50'611.6
2017-Dec-08 05:00N 39°03' W 009°50'611.6
2017-Dec-08 04:30N 38°57' W 009°51'611.6
2017-Dec-08 04:00N 38°51' W 009°51'611.7
2017-Dec-08 03:30N 38°46' W 009°51'611.7
2017-Dec-08 03:00N 38°40' W 009°50'611.3
2017-Dec-08 02:30N 38°34' W 009°48'611.4
2017-Dec-08 02:00N 38°29' W 009°47'611.4
2017-Dec-08 01:30N 38°23' W 009°45'611.2
2017-Dec-08 01:00N 38°18' W 009°44'611.1
2017-Dec-08 00:30N 38°12' W 009°42'611.1
2017-Dec-08 00:00N 38°07' W 009°40'611.3
2017-Dec-07 23:30N 38°01' W 009°39'611.4
2017-Dec-07 23:00N 37°56' W 009°37'611.7
2017-Dec-07 22:30N 37°50' W 009°35'611.4
2017-Dec-07 21:59N 37°44' W 009°33'511.0
2017-Dec-07 21:30N 37°39' W 009°32'710.9
2017-Dec-07 20:50N 37°32' W 009°30'410.7
2017-Dec-07 20:30N 37°29' W 009°29'2411.1
2017-Dec-07 18:23N 37°06' W 009°22'36 9.9
2017-Dec-07 14:45N 36°41' W 008°50'  
2017-Dec-04 10:06N 37°58' W 000°41'0 0.0
2017-Dec-04 10:00N 37°58' W 000°41'0 0.0
2017-Dec-04 09:30N 37°58' W 000°41'0 0.0
2017-Dec-04 09:00N 37°58' W 000°41'0 0.0
2017-Dec-04 08:30N 37°58' W 000°41'0 0.0
2017-Dec-04 08:00N 37°58' W 000°41'0 0.0
2017-Dec-04 07:30N 37°58' W 000°41'0 0.0
2017-Dec-04 07:00N 37°58' W 000°41'0 0.0
2017-Dec-04 06:30N 37°58' W 000°41'0 0.0
2017-Dec-04 06:00N 37°58' W 000°41'0 0.0
2017-Dec-04 05:30N 37°58' W 000°41'0 0.0
2017-Dec-04 05:00N 37°58' W 000°41'0 0.0
2017-Dec-04 04:30N 37°58' W 000°41'0 0.0
2017-Dec-04 04:00N 37°58' W 000°41'0 0.0
2017-Dec-04 03:30N 37°58' W 000°41'0 0.0
2017-Dec-04 03:00N 37°58' W 000°41'0 0.0
2017-Dec-04 02:30N 37°58' W 000°41'0 0.0
2017-Dec-04 02:00N 37°58' W 000°41'0 0.0
2017-Dec-04 01:30N 37°58' W 000°41'0 0.0
2017-Dec-04 00:54N 37°58' W 000°41'0 0.0
2017-Dec-04 00:30N 37°58' W 000°41'0 0.0
2017-Dec-04 00:00N 37°58' W 000°41'0 0.0
2017-Dec-03 23:30N 37°58' W 000°41'0 0.0
2017-Dec-03 23:00N 37°58' W 000°41'0 0.0
2017-Dec-03 22:30N 37°58' W 000°41'0 0.0
2017-Dec-03 21:30N 37°58' W 000°41'0 0.0
2017-Dec-03 21:00N 37°58' W 000°41'0 0.0
2017-Dec-03 20:30N 37°58' W 000°41'0 0.0
2017-Dec-03 19:53N 37°58' W 000°41'0 0.0
2017-Dec-03 19:23N 37°58' W 000°41'0 0.0
2017-Dec-03 18:59N 37°58' W 000°41'0 0.0
2017-Dec-03 18:29N 37°58' W 000°41'0 0.0
2017-Dec-03 17:59N 37°58' W 000°41'0 0.0
2017-Dec-03 17:23N 37°58' W 000°41'0 0.0
2017-Dec-03 16:59N 37°58' W 000°41'0 0.0
2017-Dec-03 16:29N 37°58' W 000°41'0 0.0
2017-Dec-03 15:59N 37°58' W 000°41'0 0.0
2017-Dec-03 15:29N 37°58' W 000°41'0 0.0
2017-Dec-03 14:59N 37°58' W 000°41'0 0.0
2017-Dec-03 14:29N 37°58' W 000°41'0 0.0
2017-Dec-03 13:59N 37°58' W 000°41'0 0.0
2017-Dec-03 13:29N 37°58' W 000°41'0 0.0
2017-Dec-03 12:59N 37°58' W 000°41'0 0.0
2017-Dec-03 12:05N 37°58' W 000°41'0 0.0
2017-Dec-03 11:59N 37°58' W 000°41'0 0.0
2017-Dec-03 11:29N 37°58' W 000°41'0 0.0
2017-Dec-03 10:59N 37°58' W 000°41'0 0.1
2017-Dec-03 10:29N 37°58' W 000°41'0 0.1
2017-Dec-03 09:59N 37°58' W 000°41'0 0.0
2017-Dec-03 09:29N 37°58' W 000°41'0 0.0
2017-Dec-03 08:59N 37°58' W 000°41'0 0.0
2017-Dec-03 08:29N 37°58' W 000°41'0 0.0
2017-Dec-03 07:59N 37°58' W 000°41'0 0.0
2017-Dec-03 07:23N 37°58' W 000°41'0 0.0
2017-Dec-03 06:59N 37°58' W 000°41'0 0.0
2017-Dec-03 06:29N 37°58' W 000°41'0 0.0
2017-Dec-03 05:59N 37°58' W 000°41'0 0.0
2017-Dec-03 05:23N 37°58' W 000°41'0 0.0
2017-Dec-03 04:59N 37°58' W 000°41'0 0.0
2017-Dec-03 04:29N 37°58' W 000°41'0 0.0
2017-Dec-03 03:59N 37°58' W 000°41'0 0.0
2017-Dec-03 03:29N 37°58' W 000°41'0 0.0
2017-Dec-03 02:59N 37°58' W 000°41'0 0.0
2017-Dec-03 02:29N 37°58' W 000°41'0 0.0
2017-Dec-03 01:59N 37°58' W 000°41'0 0.0
2017-Dec-03 01:29N 37°58' W 000°41'0 0.0
2017-Dec-03 00:59N 37°58' W 000°41'0 0.0
2017-Dec-03 00:29N 37°58' W 000°41'0 0.0
2017-Dec-02 23:59N 37°58' W 000°41'0 0.0
2017-Dec-02 23:29N 37°58' W 000°41'0 0.0
2017-Dec-02 22:59N 37°58' W 000°41'0 0.0
2017-Dec-02 22:29N 37°58' W 000°41'0 0.0
2017-Dec-02 21:35N 37°58' W 000°41'0 0.0
2017-Dec-02 21:29N 37°58' W 000°41'0 0.0
2017-Dec-02 20:59N 37°58' W 000°41'0 0.0
2017-Dec-02 20:29N 37°58' W 000°41'0 0.0
2017-Dec-02 19:59N 37°58' W 000°41'0 0.0
2017-Dec-02 19:29N 37°58' W 000°41'0 0.0
2017-Dec-02 18:59N 37°58' W 000°41'0 0.0
2017-Dec-02 18:29N 37°58' W 000°41'0 0.0
2017-Dec-02 17:59N 37°58' W 000°41'0 0.0
2017-Dec-02 17:29N 37°58' W 000°41'0 0.0
2017-Dec-02 16:59N 37°58' W 000°41'0 0.0
2017-Dec-02 16:29N 37°58' W 000°41'0 0.0
2017-Dec-02 15:59N 37°58' W 000°41'0 0.0
2017-Dec-02 15:29N 37°58' W 000°41'0 0.0
2017-Dec-02 14:59N 37°58' W 000°41'0 0.0
2017-Dec-02 14:29N 37°58' W 000°41'0 0.0
2017-Dec-02 13:59N 37°58' W 000°41'0 0.0
2017-Dec-02 13:23N 37°58' W 000°41'0 0.0
2017-Dec-02 12:59N 37°58' W 000°41'0 0.0
2017-Dec-02 12:23N 37°58' W 000°41'0 0.0
2017-Dec-02 11:53N 37°58' W 000°41'0 0.0
2017-Dec-02 11:29N 37°58' W 000°41'0 0.0
2017-Dec-02 10:59N 37°58' W 000°41'0 0.0
2017-Dec-02 10:23N 37°58' W 000°41'0 0.0
2017-Dec-02 09:59N 37°58' W 000°41'0 0.0
2017-Dec-02 09:29N 37°58' W 000°41'0 0.0
2017-Dec-02 08:59N 37°58' W 000°41'0 0.0
2017-Dec-02 08:29N 37°58' W 000°41'0 0.0
2017-Dec-02 07:59N 37°58' W 000°41'0 0.0
2017-Dec-02 07:28N 37°58' W 000°41'0 0.0
2017-Dec-02 06:58N 37°58' W 000°41'0 0.0
2017-Dec-02 06:28N 37°58' W 000°41'0 0.0
2017-Dec-02 05:58N 37°58' W 000°41'0 0.0
2017-Dec-02 05:28N 37°58' W 000°41'0 0.0
2017-Dec-02 04:58N 37°58' W 000°41'0 0.0
2017-Dec-02 04:22N 37°58' W 000°41'0 0.0
2017-Dec-02 03:58N 37°58' W 000°41'0 0.0
2017-Dec-02 03:28N 37°58' W 000°41'0 0.0
2017-Dec-02 02:46N 37°58' W 000°41'0 0.0
2017-Dec-02 02:28N 37°58' W 000°41'0 0.0
2017-Dec-02 01:58N 37°58' W 000°41'0 0.0
2017-Dec-02 01:28N 37°58' W 000°41'0 0.0
2017-Dec-02 00:58N 37°58' W 000°41'0 0.0
2017-Dec-02 00:16N 37°58' W 000°41'0 0.0
2017-Dec-01 23:58N 37°58' W 000°41'0 0.0
2017-Dec-01 23:28N 37°58' W 000°41'0 0.0
2017-Dec-01 22:58N 37°58' W 000°41'0 0.0
2017-Dec-01 22:30N 37°58' W 000°41'2 2.1
2017-Dec-01 21:36N 37°56' W 000°41'0 0.8
2017-Dec-01 21:18N 37°56' W 000°41'2 6.7
2017-Dec-01 21:00N 37°54' W 000°40'611.9
2017-Dec-01 20:30N 37°49' W 000°37'611.5
2017-Dec-01 20:00N 37°43' W 000°34'611.6
2017-Dec-01 19:30N 37°38' W 000°32'5 9.8
2017-Dec-01 19:00N 37°33' W 000°32'611.9
2017-Dec-01 18:28N 37°29' W 000°38'511.7
2017-Dec-01 18:00N 37°25' W 000°43'612.2
2017-Dec-01 17:30N 37°21' W 000°49'712.5
2017-Dec-01 16:58N 37°17' W 000°55'712.6
2017-Dec-01 16:26N 37°12' W 001°02'  
Track history (hours):
 
Tides and Currents Weather Stations Pressure Air Temp Water Temp Dewpoint Dewpoint Depression Visibility Wind Speed Wind Dir Waves Ship Positions

Felix

Last reported at 2017-Dec-11 05:30 UTC. Time now 2017-Dec-11 05:46 UTC.
Position N 50°21' W 002°53'.

Length 112 m; draft 6.7 m.

Type: Cargo ship. MMSI: 305791000.

Date/timePositionNaut miles runAvg speedWind from/ knotsBaromVisibWave heightAir tempDewpointWater temp
2017-Dec-11 05:30N 50°21' W 002°53'5 9.0
2017-Dec-11 05:00N 50°20' W 002°60'5 9.2
2017-Dec-11 04:30N 50°18' W 003°06'5 9.5
2017-Dec-11 04:00N 50°16' W 003°13'5 9.7
2017-Dec-11 03:30N 50°15' W 003°20'510.1
2017-Dec-11 03:00N 50°13' W 003°28'510.6
2017-Dec-11 02:30N 50°11' W 003°35'511.0
2017-Dec-11 02:00N 50°09' W 003°43'611.1
2017-Dec-11 01:30N 50°06' W 003°51'510.8
2017-Dec-11 01:00N 50°03' W 003°57'611.2
2017-Dec-11 00:30N 49°58' W 004°03'611.1
2017-Dec-10 23:56N 49°54' W 004°09'1211.3
2017-Dec-10 22:53N 49°44' W 004°20'6510.8
2017-Dec-10 16:51N 48°55' W 005°25'4 9.7
2017-Dec-10 16:26N 48°51' W 005°29'4 9.5
2017-Dec-10 16:00N 48°48' W 005°33'6 9.3
2017-Dec-10 15:21N 48°43' W 005°38'3 9.1
2017-Dec-10 14:59N 48°40' W 005°41'5 9.1
2017-Dec-10 14:28N 48°36' W 005°44'4 8.0
2017-Dec-10 13:55N 48°32' W 005°45'10 9.1
2017-Dec-10 12:48N 48°23' W 005°51'  
2017-Dec-08 06:46N 39°24' W 009°50'311.7
2017-Dec-08 06:30N 39°20' W 009°50'611.6
2017-Dec-08 06:00N 39°15' W 009°50'611.5
2017-Dec-08 05:30N 39°09' W 009°50'611.6
2017-Dec-08 05:00N 39°03' W 009°50'611.6
2017-Dec-08 04:30N 38°57' W 009°51'611.6
2017-Dec-08 04:00N 38°51' W 009°51'611.7
2017-Dec-08 03:30N 38°46' W 009°51'611.7
2017-Dec-08 03:00N 38°40' W 009°50'611.3
2017-Dec-08 02:30N 38°34' W 009°48'611.4
2017-Dec-08 02:00N 38°29' W 009°47'611.4
2017-Dec-08 01:30N 38°23' W 009°45'611.2
2017-Dec-08 01:00N 38°18' W 009°44'611.1
2017-Dec-08 00:30N 38°12' W 009°42'611.1
2017-Dec-08 00:00N 38°07' W 009°40'611.3
2017-Dec-07 23:30N 38°01' W 009°39'611.4
2017-Dec-07 23:00N 37°56' W 009°37'611.7
2017-Dec-07 22:30N 37°50' W 009°35'611.4
2017-Dec-07 21:59N 37°44' W 009°33'511.0
2017-Dec-07 21:30N 37°39' W 009°32'710.9
2017-Dec-07 20:50N 37°32' W 009°30'410.7
2017-Dec-07 20:30N 37°29' W 009°29'2411.1
2017-Dec-07 18:23N 37°06' W 009°22'36 9.9
2017-Dec-07 14:45N 36°41' W 008°50'  
2017-Dec-04 10:06N 37°58' W 000°41'0 0.0
2017-Dec-04 10:00N 37°58' W 000°41'0 0.0
2017-Dec-04 09:30N 37°58' W 000°41'0 0.0
2017-Dec-04 09:00N 37°58' W 000°41'0 0.0
2017-Dec-04 08:30N 37°58' W 000°41'0 0.0
2017-Dec-04 08:00N 37°58' W 000°41'0 0.0
2017-Dec-04 07:30N 37°58' W 000°41'0 0.0
2017-Dec-04 07:00N 37°58' W 000°41'0 0.0
2017-Dec-04 06:30N 37°58' W 000°41'0 0.0
2017-Dec-04 06:00N 37°58' W 000°41'0 0.0
2017-Dec-04 05:30N 37°58' W 000°41'0 0.0
2017-Dec-04 05:00N 37°58' W 000°41'0 0.0
2017-Dec-04 04:30N 37°58' W 000°41'0 0.0
2017-Dec-04 04:00N 37°58' W 000°41'0 0.0
2017-Dec-04 03:30N 37°58' W 000°41'0 0.0
2017-Dec-04 03:00N 37°58' W 000°41'0 0.0
2017-Dec-04 02:30N 37°58' W 000°41'0 0.0
2017-Dec-04 02:00N 37°58' W 000°41'0 0.0
2017-Dec-04 01:30N 37°58' W 000°41'0 0.0
2017-Dec-04 00:54N 37°58' W 000°41'0 0.0
2017-Dec-04 00:30N 37°58' W 000°41'0 0.0
2017-Dec-04 00:00N 37°58' W 000°41'0 0.0
2017-Dec-03 23:30N 37°58' W 000°41'0 0.0
2017-Dec-03 23:00N 37°58' W 000°41'0 0.0
2017-Dec-03 22:30N 37°58' W 000°41'0 0.0
2017-Dec-03 21:30N 37°58' W 000°41'0 0.0
2017-Dec-03 21:00N 37°58' W 000°41'0 0.0
2017-Dec-03 20:30N 37°58' W 000°41'0 0.0
2017-Dec-03 19:53N 37°58' W 000°41'0 0.0
2017-Dec-03 19:23N 37°58' W 000°41'0 0.0
2017-Dec-03 18:59N 37°58' W 000°41'0 0.0
2017-Dec-03 18:29N 37°58' W 000°41'0 0.0
2017-Dec-03 17:59N 37°58' W 000°41'0 0.0
2017-Dec-03 17:23N 37°58' W 000°41'0 0.0
2017-Dec-03 16:59N 37°58' W 000°41'0 0.0
2017-Dec-03 16:29N 37°58' W 000°41'0 0.0
2017-Dec-03 15:59N 37°58' W 000°41'0 0.0
2017-Dec-03 15:29N 37°58' W 000°41'0 0.0
2017-Dec-03 14:59N 37°58' W 000°41'0 0.0
2017-Dec-03 14:29N 37°58' W 000°41'0 0.0
2017-Dec-03 13:59N 37°58' W 000°41'0 0.0
2017-Dec-03 13:29N 37°58' W 000°41'0 0.0
2017-Dec-03 12:59N 37°58' W 000°41'0 0.0
2017-Dec-03 12:05N 37°58' W 000°41'0 0.0
2017-Dec-03 11:59N 37°58' W 000°41'0 0.0
2017-Dec-03 11:29N 37°58' W 000°41'0 0.0
2017-Dec-03 10:59N 37°58' W 000°41'0 0.1
2017-Dec-03 10:29N 37°58' W 000°41'0 0.1
2017-Dec-03 09:59N 37°58' W 000°41'0 0.0
2017-Dec-03 09:29N 37°58' W 000°41'0 0.0
2017-Dec-03 08:59N 37°58' W 000°41'0 0.0
2017-Dec-03 08:29N 37°58' W 000°41'0 0.0
2017-Dec-03 07:59N 37°58' W 000°41'0 0.0
2017-Dec-03 07:23N 37°58' W 000°41'0 0.0
2017-Dec-03 06:59N 37°58' W 000°41'0 0.0
2017-Dec-03 06:29N 37°58' W 000°41'0 0.0
2017-Dec-03 05:59N 37°58' W 000°41'0 0.0
2017-Dec-03 05:23N 37°58' W 000°41'0 0.0
2017-Dec-03 04:59N 37°58' W 000°41'0 0.0
2017-Dec-03 04:29N 37°58' W 000°41'0 0.0
2017-Dec-03 03:59N 37°58' W 000°41'0 0.0
2017-Dec-03 03:29N 37°58' W 000°41'0 0.0
2017-Dec-03 02:59N 37°58' W 000°41'0 0.0
2017-Dec-03 02:29N 37°58' W 000°41'0 0.0
2017-Dec-03 01:59N 37°58' W 000°41'0 0.0
2017-Dec-03 01:29N 37°58' W 000°41'0 0.0
2017-Dec-03 00:59N 37°58' W 000°41'0 0.0
2017-Dec-03 00:29N 37°58' W 000°41'0 0.0
2017-Dec-02 23:59N 37°58' W 000°41'0 0.0
2017-Dec-02 23:29N 37°58' W 000°41'0 0.0
2017-Dec-02 22:59N 37°58' W 000°41'0 0.0
2017-Dec-02 22:29N 37°58' W 000°41'0 0.0
2017-Dec-02 21:35N 37°58' W 000°41'0 0.0
2017-Dec-02 21:29N 37°58' W 000°41'0 0.0
2017-Dec-02 20:59N 37°58' W 000°41'0 0.0
2017-Dec-02 20:29N 37°58' W 000°41'0 0.0
2017-Dec-02 19:59N 37°58' W 000°41'0 0.0
2017-Dec-02 19:29N 37°58' W 000°41'0 0.0
2017-Dec-02 18:59N 37°58' W 000°41'0 0.0
2017-Dec-02 18:29N 37°58' W 000°41'0 0.0
2017-Dec-02 17:59N 37°58' W 000°41'0 0.0
2017-Dec-02 17:29N 37°58' W 000°41'0 0.0
2017-Dec-02 16:59N 37°58' W 000°41'0 0.0
2017-Dec-02 16:29N 37°58' W 000°41'0 0.0
2017-Dec-02 15:59N 37°58' W 000°41'0 0.0
2017-Dec-02 15:29N 37°58' W 000°41'0 0.0
2017-Dec-02 14:59N 37°58' W 000°41'0 0.0
2017-Dec-02 14:29N 37°58' W 000°41'0 0.0
2017-Dec-02 13:59N 37°58' W 000°41'0 0.0
2017-Dec-02 13:23N 37°58' W 000°41'0 0.0
2017-Dec-02 12:59N 37°58' W 000°41'0 0.0
2017-Dec-02 12:23N 37°58' W 000°41'0 0.0
2017-Dec-02 11:53N 37°58' W 000°41'0 0.0
2017-Dec-02 11:29N 37°58' W 000°41'0 0.0
2017-Dec-02 10:59N 37°58' W 000°41'0 0.0
2017-Dec-02 10:23N 37°58' W 000°41'0 0.0
2017-Dec-02 09:59N 37°58' W 000°41'0 0.0
2017-Dec-02 09:29N 37°58' W 000°41'0 0.0
2017-Dec-02 08:59N 37°58' W 000°41'0 0.0
2017-Dec-02 08:29N 37°58' W 000°41'0 0.0
2017-Dec-02 07:59N 37°58' W 000°41'0 0.0
2017-Dec-02 07:28N 37°58' W 000°41'0 0.0
2017-Dec-02 06:58N 37°58' W 000°41'0 0.0
2017-Dec-02 06:28N 37°58' W 000°41'0 0.0
2017-Dec-02 05:58N 37°58' W 000°41'0 0.0
2017-Dec-02 05:28N 37°58' W 000°41'0 0.0
2017-Dec-02 04:58N 37°58' W 000°41'0 0.0
2017-Dec-02 04:22N 37°58' W 000°41'0 0.0
2017-Dec-02 03:58N 37°58' W 000°41'0 0.0
2017-Dec-02 03:28N 37°58' W 000°41'0 0.0
2017-Dec-02 02:46N 37°58' W 000°41'0 0.0
2017-Dec-02 02:28N 37°58' W 000°41'0 0.0
2017-Dec-02 01:58N 37°58' W 000°41'0 0.0
2017-Dec-02 01:28N 37°58' W 000°41'0 0.0
2017-Dec-02 00:58N 37°58' W 000°41'0 0.0
2017-Dec-02 00:16N 37°58' W 000°41'0 0.0
2017-Dec-01 23:58N 37°58' W 000°41'0 0.0
2017-Dec-01 23:28N 37°58' W 000°41'0 0.0
2017-Dec-01 22:58N 37°58' W 000°41'0 0.0
2017-Dec-01 22:30N 37°58' W 000°41'2 2.1
2017-Dec-01 21:36N 37°56' W 000°41'0 0.8
2017-Dec-01 21:18N 37°56' W 000°41'2 6.7
2017-Dec-01 21:00N 37°54' W 000°40'611.9
2017-Dec-01 20:30N 37°49' W 000°37'611.5
2017-Dec-01 20:00N 37°43' W 000°34'611.6
2017-Dec-01 19:30N 37°38' W 000°32'5 9.8
2017-Dec-01 19:00N 37°33' W 000°32'611.9
2017-Dec-01 18:28N 37°29' W 000°38'511.7
2017-Dec-01 18:00N 37°25' W 000°43'612.2
2017-Dec-01 17:30N 37°21' W 000°49'712.5
2017-Dec-01 16:58N 37°17' W 000°55'712.6
2017-Dec-01 16:26N 37°12' W 001°02'  

Dump ship's entire track history